sensor_id;sensor_type;location;lat;lon;timestamp;P1;durP1;ratioP1;P2;durP2;ratioP2
20857;SDS011;10589;53.636;10.012;2023-04-10T03:45:40;51.10;;;29.20;;
20857;SDS011;10589;53.636;10.012;2023-04-10T03:48:06;54.17;;;30.13;;
20857;SDS011;10589;53.636;10.012;2023-04-10T03:50:32;54.60;;;29.47;;
20857;SDS011;10589;53.636;10.012;2023-04-10T03:52:58;55.30;;;28.60;;
20857;SDS011;10589;53.636;10.012;2023-04-10T03:55:24;53.87;;;29.97;;
20857;SDS011;10589;53.636;10.012;2023-04-10T03:57:50;53.23;;;29.40;;
20857;SDS011;10589;53.636;10.012;2023-04-10T04:00:16;56.80;;;30.67;;
20857;SDS011;10589;53.636;10.012;2023-04-10T04:02:41;58.13;;;28.87;;
20857;SDS011;10589;53.636;10.012;2023-04-10T04:05:07;49.50;;;29.37;;
20857;SDS011;10589;53.636;10.012;2023-04-10T04:07:33;49.80;;;28.63;;
20857;SDS011;10589;53.636;10.012;2023-04-10T04:09:59;53.70;;;29.53;;
20857;SDS011;10589;53.636;10.012;2023-04-10T04:12:25;49.13;;;28.73;;
20857;SDS011;10589;53.636;10.012;2023-04-10T04:14:51;56.07;;;30.40;;
20857;SDS011;10589;53.636;10.012;2023-04-10T04:17:17;55.13;;;30.37;;
20857;SDS011;10589;53.636;10.012;2023-04-10T04:19:43;53.67;;;28.57;;
20857;SDS011;10589;53.636;10.012;2023-04-10T04:22:08;54.03;;;29.27;;
20857;SDS011;10589;53.636;10.012;2023-04-10T04:24:35;49.87;;;28.03;;
20857;SDS011;10589;53.636;10.012;2023-04-10T04:27:00;51.17;;;27.83;;
20857;SDS011;10589;53.636;10.012;2023-04-10T04:29:26;50.90;;;28.80;;
20857;SDS011;10589;53.636;10.012;2023-04-10T04:31:52;54.07;;;30.33;;
20857;SDS011;10589;53.636;10.012;2023-04-10T04:34:18;54.63;;;29.00;;
20857;SDS011;10589;53.636;10.012;2023-04-10T04:36:43;57.53;;;29.70;;
20857;SDS011;10589;53.636;10.012;2023-04-10T04:39:09;50.07;;;28.10;;
20857;SDS011;10589;53.636;10.012;2023-04-10T04:41:34;45.30;;;26.83;;
20857;SDS011;10589;53.636;10.012;2023-04-10T04:44:00;55.53;;;30.77;;
20857;SDS011;10589;53.636;10.012;2023-04-10T04:46:26;48.00;;;27.77;;
20857;SDS011;10589;53.636;10.012;2023-04-10T04:48:52;40.90;;;25.20;;
20857;SDS011;10589;53.636;10.012;2023-04-10T04:51:18;51.13;;;28.00;;
20857;SDS011;10589;53.636;10.012;2023-04-10T04:53:43;46.57;;;26.77;;
20857;SDS011;10589;53.636;10.012;2023-04-10T04:56:09;52.00;;;29.20;;
20857;SDS011;10589;53.636;10.012;2023-04-10T04:58:35;48.00;;;28.23;;
20857;SDS011;10589;53.636;10.012;2023-04-10T05:01:00;48.60;;;27.80;;
20857;SDS011;10589;53.636;10.012;2023-04-10T05:03:26;51.30;;;28.83;;
20857;SDS011;10589;53.636;10.012;2023-04-10T05:05:55;49.80;;;27.57;;
20857;SDS011;10589;53.636;10.012;2023-04-10T05:08:21;50.37;;;28.57;;
20857;SDS011;10589;53.636;10.012;2023-04-10T05:10:47;49.90;;;29.57;;
20857;SDS011;10589;53.636;10.012;2023-04-10T05:13:13;49.43;;;28.90;;
20857;SDS011;10589;53.636;10.012;2023-04-10T05:15:41;54.30;;;29.50;;
20857;SDS011;10589;53.636;10.012;2023-04-10T05:18:07;47.47;;;29.37;;
20857;SDS011;10589;53.636;10.012;2023-04-10T05:20:33;48.40;;;27.70;;
20857;SDS011;10589;53.636;10.012;2023-04-10T05:23:00;50.23;;;27.63;;
20857;SDS011;10589;53.636;10.012;2023-04-10T05:25:26;51.03;;;29.17;;
20857;SDS011;10589;53.636;10.012;2023-04-10T05:27:51;55.97;;;28.70;;
20857;SDS011;10589;53.636;10.012;2023-04-10T05:30:17;43.77;;;27.40;;
20857;SDS011;10589;53.636;10.012;2023-04-10T05:32:43;50.23;;;28.70;;
20857;SDS011;10589;53.636;10.012;2023-04-10T05:35:10;42.83;;;26.77;;
20857;SDS011;10589;53.636;10.012;2023-04-10T05:37:35;39.70;;;25.97;;
20857;SDS011;10589;53.636;10.012;2023-04-10T05:40:01;43.43;;;26.20;;
20857;SDS011;10589;53.636;10.012;2023-04-10T05:42:27;45.10;;;27.87;;
20857;SDS011;10589;53.636;10.012;2023-04-10T05:44:53;45.27;;;26.53;;
20857;SDS011;10589;53.636;10.012;2023-04-10T05:47:18;43.40;;;27.63;;
20857;SDS011;10589;53.636;10.012;2023-04-10T05:49:44;39.97;;;25.47;;
20857;SDS011;10589;53.636;10.012;2023-04-10T05:52:10;39.27;;;25.60;;
20857;SDS011;10589;53.636;10.012;2023-04-10T05:54:35;39.63;;;24.50;;
20857;SDS011;10589;53.636;10.012;2023-04-10T05:57:01;35.03;;;24.20;;
20857;SDS011;10589;53.636;10.012;2023-04-10T05:59:26;35.27;;;24.07;;
20857;SDS011;10589;53.636;10.012;2023-04-10T06:01:52;35.77;;;23.53;;
20857;SDS011;10589;53.636;10.012;2023-04-10T06:04:18;34.20;;;23.43;;
20857;SDS011;10589;53.636;10.012;2023-04-10T06:06:45;33.83;;;23.27;;
20857;SDS011;10589;53.636;10.012;2023-04-10T06:09:10;35.50;;;23.30;;
20857;SDS011;10589;53.636;10.012;2023-04-10T06:11:36;34.10;;;23.10;;
20857;SDS011;10589;53.636;10.012;2023-04-10T06:14:02;31.47;;;22.17;;
20857;SDS011;10589;53.636;10.012;2023-04-10T06:16:27;35.27;;;23.53;;
20857;SDS011;10589;53.636;10.012;2023-04-10T06:18:54;30.37;;;21.07;;
20857;SDS011;10589;53.636;10.012;2023-04-10T06:21:20;33.43;;;22.10;;
20857;SDS011;10589;53.636;10.012;2023-04-10T06:23:45;30.13;;;21.33;;
20857;SDS011;10589;53.636;10.012;2023-04-10T06:26:11;34.57;;;22.97;;
20857;SDS011;10589;53.636;10.012;2023-04-10T06:28:38;34.30;;;22.17;;
20857;SDS011;10589;53.636;10.012;2023-04-10T06:31:06;32.03;;;22.70;;
20857;SDS011;10589;53.636;10.012;2023-04-10T06:33:32;31.83;;;22.03;;
20857;SDS011;10589;53.636;10.012;2023-04-10T06:36:00;29.90;;;21.70;;
20857;SDS011;10589;53.636;10.012;2023-04-10T06:38:26;32.47;;;21.83;;
20857;SDS011;10589;53.636;10.012;2023-04-10T06:40:51;30.20;;;20.77;;
20857;SDS011;10589;53.636;10.012;2023-04-10T06:43:17;30.90;;;21.73;;
20857;SDS011;10589;53.636;10.012;2023-04-10T06:45:43;29.33;;;20.57;;
20857;SDS011;10589;53.636;10.012;2023-04-10T06:48:09;30.50;;;21.67;;
20857;SDS011;10589;53.636;10.012;2023-04-10T06:50:35;32.20;;;22.27;;
20857;SDS011;10589;53.636;10.012;2023-04-10T06:53:00;32.37;;;20.93;;
20857;SDS011;10589;53.636;10.012;2023-04-10T06:55:26;31.37;;;21.00;;
20857;SDS011;10589;53.636;10.012;2023-04-10T06:57:51;31.27;;;21.47;;
20857;SDS011;10589;53.636;10.012;2023-04-10T07:00:17;28.20;;;19.93;;
20857;SDS011;10589;53.636;10.012;2023-04-10T07:02:43;30.57;;;20.83;;
20857;SDS011;10589;53.636;10.012;2023-04-10T07:05:10;30.33;;;21.53;;
20857;SDS011;10589;53.636;10.012;2023-04-10T07:07:35;30.13;;;21.77;;
20857;SDS011;10589;53.636;10.012;2023-04-10T07:10:01;27.50;;;20.17;;
20857;SDS011;10589;53.636;10.012;2023-04-10T07:12:27;28.23;;;20.27;;
20857;SDS011;10589;53.636;10.012;2023-04-10T07:14:53;31.80;;;20.43;;
20857;SDS011;10589;53.636;10.012;2023-04-10T07:17:18;28.40;;;20.97;;
20857;SDS011;10589;53.636;10.012;2023-04-10T07:19:45;29.43;;;20.97;;
20857;SDS011;10589;53.636;10.012;2023-04-10T07:22:10;29.27;;;20.70;;
20857;SDS011;10589;53.636;10.012;2023-04-10T07:24:36;28.67;;;21.23;;
20857;SDS011;10589;53.636;10.012;2023-04-10T07:27:02;29.00;;;21.37;;
20857;SDS011;10589;53.636;10.012;2023-04-10T07:29:27;27.53;;;20.47;;
20857;SDS011;10589;53.636;10.012;2023-04-10T07:31:54;26.67;;;20.70;;
20857;SDS011;10589;53.636;10.012;2023-04-10T07:34:20;26.93;;;19.70;;
20857;SDS011;10589;53.636;10.012;2023-04-10T07:36:45;25.63;;;19.17;;
20857;SDS011;10589;53.636;10.012;2023-04-10T07:39:12;28.00;;;20.37;;
20857;SDS011;10589;53.636;10.012;2023-04-10T07:41:37;26.03;;;19.63;;
20857;SDS011;10589;53.636;10.012;2023-04-10T07:44:04;26.47;;;19.40;;
20857;SDS011;10589;53.636;10.012;2023-04-10T07:46:29;26.87;;;19.90;;
20857;SDS011;10589;53.636;10.012;2023-04-10T07:48:55;25.63;;;19.03;;
20857;SDS011;10589;53.636;10.012;2023-04-10T07:51:21;28.10;;;19.13;;
20857;SDS011;10589;53.636;10.012;2023-04-10T07:53:46;24.77;;;18.00;;
20857;SDS011;10589;53.636;10.012;2023-04-10T07:56:16;23.93;;;18.77;;
20857;SDS011;10589;53.636;10.012;2023-04-10T07:58:42;23.27;;;18.03;;
20857;SDS011;10589;53.636;10.012;2023-04-10T08:01:08;24.10;;;18.23;;
20857;SDS011;10589;53.636;10.012;2023-04-10T08:03:37;21.33;;;17.83;;
20857;SDS011;10589;53.636;10.012;2023-04-10T08:06:07;23.97;;;18.30;;
20857;SDS011;10589;53.636;10.012;2023-04-10T08:08:37;22.97;;;17.63;;
20857;SDS011;10589;53.636;10.012;2023-04-10T08:11:05;23.90;;;17.93;;
20857;SDS011;10589;53.636;10.012;2023-04-10T08:13:32;23.20;;;17.80;;
20857;SDS011;10589;53.636;10.012;2023-04-10T08:15:58;21.13;;;17.30;;
20857;SDS011;10589;53.636;10.012;2023-04-10T08:18:24;21.80;;;16.87;;
20857;SDS011;10589;53.636;10.012;2023-04-10T08:20:49;23.03;;;17.37;;
20857;SDS011;10589;53.636;10.012;2023-04-10T08:23:15;23.27;;;17.60;;
20857;SDS011;10589;53.636;10.012;2023-04-10T08:25:41;21.93;;;17.10;;
20857;SDS011;10589;53.636;10.012;2023-04-10T08:28:06;23.60;;;17.87;;
20857;SDS011;10589;53.636;10.012;2023-04-10T08:30:32;21.50;;;17.07;;
20857;SDS011;10589;53.636;10.012;2023-04-10T08:32:57;22.47;;;17.40;;
20857;SDS011;10589;53.636;10.012;2023-04-10T08:35:23;21.43;;;16.83;;
20857;SDS011;10589;53.636;10.012;2023-04-10T08:37:48;21.03;;;16.97;;
20857;SDS011;10589;53.636;10.012;2023-04-10T08:40:14;20.40;;;16.03;;
20857;SDS011;10589;53.636;10.012;2023-04-10T08:42:39;21.37;;;16.83;;
20857;SDS011;10589;53.636;10.012;2023-04-10T08:45:05;21.77;;;16.93;;
20857;SDS011;10589;53.636;10.012;2023-04-10T08:47:33;22.10;;;17.27;;
20857;SDS011;10589;53.636;10.012;2023-04-10T08:50:05;20.73;;;16.73;;
20857;SDS011;10589;53.636;10.012;2023-04-10T08:52:34;24.63;;;16.97;;
20857;SDS011;10589;53.636;10.012;2023-04-10T08:55:07;20.83;;;15.10;;
20857;SDS011;10589;53.636;10.012;2023-04-10T08:57:33;17.90;;;15.27;;
20857;SDS011;10589;53.636;10.012;2023-04-10T09:00:02;20.13;;;16.47;;
20857;SDS011;10589;53.636;10.012;2023-04-10T09:02:28;19.50;;;16.03;;
20857;SDS011;10589;53.636;10.012;2023-04-10T09:04:53;20.07;;;15.87;;
20857;SDS011;10589;53.636;10.012;2023-04-10T09:07:21;21.23;;;15.73;;
20857;SDS011;10589;53.636;10.012;2023-04-10T09:09:47;19.93;;;14.70;;
20857;SDS011;10589;53.636;10.012;2023-04-10T09:12:13;17.83;;;15.00;;
20857;SDS011;10589;53.636;10.012;2023-04-10T09:14:40;17.07;;;13.97;;
20857;SDS011;10589;53.636;10.012;2023-04-10T09:19:54;16.33;;;14.07;;
20857;SDS011;10589;53.636;10.012;2023-04-10T09:22:33;15.47;;;13.27;;
20857;SDS011;10589;53.636;10.012;2023-04-10T09:25:00;18.90;;;14.83;;
20857;SDS011;10589;53.636;10.012;2023-04-10T09:27:27;19.10;;;13.63;;
20857;SDS011;10589;53.636;10.012;2023-04-10T09:29:57;19.03;;;14.57;;
20857;SDS011;10589;53.636;10.012;2023-04-10T09:32:39;15.47;;;13.53;;
20857;SDS011;10589;53.636;10.012;2023-04-10T09:35:09;17.57;;;14.30;;
20857;SDS011;10589;53.636;10.012;2023-04-10T09:37:35;17.10;;;14.33;;
20857;SDS011;10589;53.636;10.012;2023-04-10T09:40:02;16.03;;;13.40;;
20857;SDS011;10589;53.636;10.012;2023-04-10T09:42:29;14.63;;;12.53;;
20857;SDS011;10589;53.636;10.012;2023-04-10T09:44:55;14.03;;;12.37;;
20857;SDS011;10589;53.636;10.012;2023-04-10T09:47:21;14.60;;;12.73;;
20857;SDS011;10589;53.636;10.012;2023-04-10T09:49:51;14.57;;;12.73;;
20857;SDS011;10589;53.636;10.012;2023-04-10T09:52:24;13.40;;;11.40;;
20857;SDS011;10589;53.636;10.012;2023-04-10T09:54:55;13.00;;;11.10;;
20857;SDS011;10589;53.636;10.012;2023-04-10T09:57:22;13.00;;;10.80;;
20857;SDS011;10589;53.636;10.012;2023-04-10T09:59:50;11.67;;;10.40;;
20857;SDS011;10589;53.636;10.012;2023-04-10T10:02:22;13.00;;;11.43;;
20857;SDS011;10589;53.636;10.012;2023-04-10T10:04:49;13.23;;;11.83;;
20857;SDS011;10589;53.636;10.012;2023-04-10T10:07:16;13.17;;;11.30;;
20857;SDS011;10589;53.636;10.012;2023-04-10T10:09:46;13.00;;;11.07;;
20857;SDS011;10589;53.636;10.012;2023-04-10T10:12:38;15.63;;;10.57;;
20857;SDS011;10589;53.636;10.012;2023-04-10T10:15:13;12.13;;;10.10;;
20857;SDS011;10589;53.636;10.012;2023-04-10T10:17:45;14.97;;;11.93;;
20857;SDS011;10589;53.636;10.012;2023-04-10T10:20:24;11.47;;;10.30;;
20857;SDS011;10589;53.636;10.012;2023-04-10T10:22:51;11.57;;;9.60;;
20857;SDS011;10589;53.636;10.012;2023-04-10T10:25:17;9.67;;;8.67;;
20857;SDS011;10589;53.636;10.012;2023-04-10T10:27:44;9.47;;;8.20;;
20857;SDS011;10589;53.636;10.012;2023-04-10T10:30:13;8.37;;;7.43;;
20857;SDS011;10589;53.636;10.012;2023-04-10T10:32:41;11.30;;;8.90;;
20857;SDS011;10589;53.636;10.012;2023-04-10T10:35:09;9.00;;;7.97;;
20857;SDS011;10589;53.636;10.012;2023-04-10T10:37:35;8.73;;;7.83;;
20857;SDS011;10589;53.636;10.012;2023-04-10T10:42:44;9.93;;;8.20;;
20857;SDS011;10589;53.636;10.012;2023-04-10T10:45:18;9.93;;;8.90;;
20857;SDS011;10589;53.636;10.012;2023-04-10T10:47:53;8.63;;;7.63;;
20857;SDS011;10589;53.636;10.012;2023-04-10T10:50:19;8.77;;;7.85;;
20857;SDS011;10589;53.636;10.012;2023-04-10T10:52:48;7.60;;;6.87;;
20857;SDS011;10589;53.636;10.012;2023-04-10T10:57:52;7.15;;;6.45;;
20857;SDS011;10589;53.636;10.012;2023-04-10T11:00:26;7.43;;;6.63;;
20857;SDS011;10589;53.636;10.012;2023-04-10T11:06:14;9.70;;;7.32;;
20857;SDS011;10589;53.636;10.012;2023-04-10T11:10:58;7.38;;;6.60;;
20857;SDS011;10589;53.636;10.012;2023-04-10T11:13:29;8.82;;;6.40;;
20857;SDS011;10589;53.636;10.012;2023-04-10T11:15:55;7.32;;;6.57;;
20857;SDS011;10589;53.636;10.012;2023-04-10T11:23:36;7.85;;;7.05;;
20857;SDS011;10589;53.636;10.012;2023-04-10T11:29:01;9.85;;;7.85;;
20857;SDS011;10589;53.636;10.012;2023-04-10T11:31:27;8.07;;;7.28;;
20857;SDS011;10589;53.636;10.012;2023-04-10T11:36:30;7.88;;;7.03;;
20857;SDS011;10589;53.636;10.012;2023-04-10T11:39:00;8.90;;;7.45;;
20857;SDS011;10589;53.636;10.012;2023-04-10T11:41:41;7.88;;;6.68;;
20857;SDS011;10589;53.636;10.012;2023-04-10T11:44:09;7.78;;;5.78;;
20857;SDS011;10589;53.636;10.012;2023-04-10T11:46:37;6.23;;;5.57;;
20857;SDS011;10589;53.636;10.012;2023-04-10T11:49:04;6.23;;;5.47;;
20857;SDS011;10589;53.636;10.012;2023-04-10T11:51:31;6.72;;;4.95;;
20857;SDS011;10589;53.636;10.012;2023-04-10T11:56:30;5.83;;;5.20;;
20857;SDS011;10589;53.636;10.012;2023-04-10T11:58:56;5.68;;;4.57;;
20857;SDS011;10589;53.636;10.012;2023-04-10T12:01:22;7.17;;;5.33;;
20857;SDS011;10589;53.636;10.012;2023-04-10T12:03:47;7.65;;;4.28;;
20857;SDS011;10589;53.636;10.012;2023-04-10T12:06:13;5.85;;;4.57;;
20857;SDS011;10589;53.636;10.012;2023-04-10T12:08:40;5.68;;;4.82;;
20857;SDS011;10589;53.636;10.012;2023-04-10T12:11:09;5.05;;;4.30;;
20857;SDS011;10589;53.636;10.012;2023-04-10T12:13:35;5.03;;;4.53;;
20857;SDS011;10589;53.636;10.012;2023-04-10T12:16:08;5.38;;;4.13;;
20857;SDS011;10589;53.636;10.012;2023-04-10T12:18:34;5.70;;;4.97;;
20857;SDS011;10589;53.636;10.012;2023-04-10T12:21:01;6.13;;;4.63;;
20857;SDS011;10589;53.636;10.012;2023-04-10T12:23:27;8.32;;;4.72;;
20857;SDS011;10589;53.636;10.012;2023-04-10T12:28:39;6.90;;;4.85;;
20857;SDS011;10589;53.636;10.012;2023-04-10T12:31:06;5.25;;;4.55;;
20857;SDS011;10589;53.636;10.012;2023-04-10T12:33:32;8.70;;;5.00;;
20857;SDS011;10589;53.636;10.012;2023-04-10T12:35:58;4.97;;;4.47;;
20857;SDS011;10589;53.636;10.012;2023-04-10T12:38:33;4.93;;;4.28;;
20857;SDS011;10589;53.636;10.012;2023-04-10T12:41:06;5.70;;;4.50;;
20857;SDS011;10589;53.636;10.012;2023-04-10T12:46:03;5.97;;;5.15;;
20857;SDS011;10589;53.636;10.012;2023-04-10T12:48:30;6.75;;;4.82;;
20857;SDS011;10589;53.636;10.012;2023-04-10T12:50:56;6.45;;;4.43;;
20857;SDS011;10589;53.636;10.012;2023-04-10T12:53:22;5.75;;;4.90;;
20857;SDS011;10589;53.636;10.012;2023-04-10T12:56:03;7.45;;;4.20;;
20857;SDS011;10589;53.636;10.012;2023-04-10T12:58:31;4.68;;;4.10;;
20857;SDS011;10589;53.636;10.012;2023-04-10T13:00:58;4.90;;;4.40;;
20857;SDS011;10589;53.636;10.012;2023-04-10T13:03:28;5.13;;;4.63;;
20857;SDS011;10589;53.636;10.012;2023-04-10T13:05:54;7.13;;;4.20;;
20857;SDS011;10589;53.636;10.012;2023-04-10T13:08:20;5.18;;;4.55;;
20857;SDS011;10589;53.636;10.012;2023-04-10T13:10:47;6.43;;;4.00;;
20857;SDS011;10589;53.636;10.012;2023-04-10T13:13:13;4.10;;;3.70;;
20857;SDS011;10589;53.636;10.012;2023-04-10T13:15:39;5.32;;;4.00;;
20857;SDS011;10589;53.636;10.012;2023-04-10T13:18:05;4.78;;;4.13;;
20857;SDS011;10589;53.636;10.012;2023-04-10T13:20:38;5.20;;;3.85;;
20857;SDS011;10589;53.636;10.012;2023-04-10T13:23:05;5.53;;;4.32;;
20857;SDS011;10589;53.636;10.012;2023-04-10T13:25:32;4.75;;;3.55;;
20857;SDS011;10589;53.636;10.012;2023-04-10T13:28:00;4.40;;;3.83;;
20857;SDS011;10589;53.636;10.012;2023-04-10T13:30:26;5.10;;;3.83;;
20857;SDS011;10589;53.636;10.012;2023-04-10T13:32:53;7.28;;;4.00;;
20857;SDS011;10589;53.636;10.012;2023-04-10T13:35:19;3.53;;;3.17;;
20857;SDS011;10589;53.636;10.012;2023-04-10T13:37:45;5.85;;;3.70;;
20857;SDS011;10589;53.636;10.012;2023-04-10T13:40:11;3.67;;;3.38;;
20857;SDS011;10589;53.636;10.012;2023-04-10T13:42:37;4.30;;;3.90;;
20857;SDS011;10589;53.636;10.012;2023-04-10T13:45:02;4.57;;;3.72;;
20857;SDS011;10589;53.636;10.012;2023-04-10T13:47:28;4.57;;;3.10;;
20857;SDS011;10589;53.636;10.012;2023-04-10T13:49:54;3.60;;;3.30;;
20857;SDS011;10589;53.636;10.012;2023-04-10T13:52:20;3.88;;;2.92;;
20857;SDS011;10589;53.636;10.012;2023-04-10T13:54:45;3.83;;;3.42;;
20857;SDS011;10589;53.636;10.012;2023-04-10T13:57:11;5.28;;;3.15;;
20857;SDS011;10589;53.636;10.012;2023-04-10T13:59:36;3.78;;;3.35;;
20857;SDS011;10589;53.636;10.012;2023-04-10T14:02:02;4.85;;;3.17;;
20857;SDS011;10589;53.636;10.012;2023-04-10T14:04:27;3.50;;;3.00;;
20857;SDS011;10589;53.636;10.012;2023-04-10T14:06:53;4.03;;;3.58;;
20857;SDS011;10589;53.636;10.012;2023-04-10T14:09:22;4.38;;;3.75;;
20857;SDS011;10589;53.636;10.012;2023-04-10T14:11:48;7.78;;;3.55;;
20857;SDS011;10589;53.636;10.012;2023-04-10T14:14:14;4.68;;;4.07;;
20857;SDS011;10589;53.636;10.012;2023-04-10T14:16:39;6.15;;;3.88;;
20857;SDS011;10589;53.636;10.012;2023-04-10T14:19:05;6.30;;;4.68;;
20857;SDS011;10589;53.636;10.012;2023-04-10T14:21:31;4.90;;;4.35;;
20857;SDS011;10589;53.636;10.012;2023-04-10T14:23:56;5.75;;;5.10;;
20857;SDS011;10589;53.636;10.012;2023-04-10T14:26:23;6.20;;;5.00;;
20857;SDS011;10589;53.636;10.012;2023-04-10T14:28:50;8.07;;;4.97;;
20857;SDS011;10589;53.636;10.012;2023-04-10T14:31:16;7.45;;;5.55;;
20857;SDS011;10589;53.636;10.012;2023-04-10T14:33:42;4.82;;;4.40;;
20857;SDS011;10589;53.636;10.012;2023-04-10T14:36:07;5.53;;;4.72;;
20857;SDS011;10589;53.636;10.012;2023-04-10T14:38:33;5.28;;;4.78;;
20857;SDS011;10589;53.636;10.012;2023-04-10T14:41:00;5.88;;;5.15;;
20857;SDS011;10589;53.636;10.012;2023-04-10T14:43:26;5.57;;;4.40;;
20857;SDS011;10589;53.636;10.012;2023-04-10T14:45:52;5.57;;;4.97;;
20857;SDS011;10589;53.636;10.012;2023-04-10T14:48:17;8.18;;;5.25;;
20857;SDS011;10589;53.636;10.012;2023-04-10T14:50:45;5.25;;;4.75;;
20857;SDS011;10589;53.636;10.012;2023-04-10T14:53:11;6.20;;;5.57;;
20857;SDS011;10589;53.636;10.012;2023-04-10T14:55:36;6.95;;;5.72;;
20857;SDS011;10589;53.636;10.012;2023-04-10T14:58:02;7.80;;;5.43;;
20857;SDS011;10589;53.636;10.012;2023-04-10T15:00:28;7.03;;;5.85;;
20857;SDS011;10589;53.636;10.012;2023-04-10T15:02:54;8.27;;;5.13;;
20857;SDS011;10589;53.636;10.012;2023-04-10T15:05:21;5.32;;;4.28;;
20857;SDS011;10589;53.636;10.012;2023-04-10T15:07:47;5.95;;;4.63;;
20857;SDS011;10589;53.636;10.012;2023-04-10T15:10:12;4.85;;;4.45;;
20857;SDS011;10589;53.636;10.012;2023-04-10T15:12:38;5.82;;;5.07;;
20857;SDS011;10589;53.636;10.012;2023-04-10T15:15:04;9.25;;;4.95;;
20857;SDS011;10589;53.636;10.012;2023-04-10T15:17:30;9.60;;;5.90;;
20857;SDS011;10589;53.636;10.012;2023-04-10T15:19:56;8.40;;;5.55;;
20857;SDS011;10589;53.636;10.012;2023-04-10T15:22:21;6.28;;;5.28;;
20857;SDS011;10589;53.636;10.012;2023-04-10T15:24:47;6.60;;;5.60;;
20857;SDS011;10589;53.636;10.012;2023-04-10T15:27:12;5.60;;;4.85;;
20857;SDS011;10589;53.636;10.012;2023-04-10T15:29:40;4.40;;;3.83;;
20857;SDS011;10589;53.636;10.012;2023-04-10T15:32:07;6.95;;;4.75;;
20857;SDS011;10589;53.636;10.012;2023-04-10T15:34:32;4.60;;;4.10;;
20857;SDS011;10589;53.636;10.012;2023-04-10T15:36:58;9.18;;;4.22;;
20857;SDS011;10589;53.636;10.012;2023-04-10T15:39:23;6.53;;;4.32;;
20857;SDS011;10589;53.636;10.012;2023-04-10T15:41:49;4.13;;;3.70;;
20857;SDS011;10589;53.636;10.012;2023-04-10T15:44:15;7.78;;;4.38;;
20857;SDS011;10589;53.636;10.012;2023-04-10T15:46:41;5.82;;;4.30;;
20857;SDS011;10589;53.636;10.012;2023-04-10T15:49:07;5.93;;;4.90;;
20857;SDS011;10589;53.636;10.012;2023-04-10T15:51:33;4.38;;;3.90;;
20857;SDS011;10589;53.636;10.012;2023-04-10T15:53:59;5.18;;;4.50;;
20857;SDS011;10589;53.636;10.012;2023-04-10T15:56:27;4.40;;;4.03;;
20857;SDS011;10589;53.636;10.012;2023-04-10T15:58:52;4.40;;;4.00;;
20857;SDS011;10589;53.636;10.012;2023-04-10T16:01:18;6.55;;;4.43;;
20857;SDS011;10589;53.636;10.012;2023-04-10T16:03:44;6.07;;;4.75;;
20857;SDS011;10589;53.636;10.012;2023-04-10T16:06:09;8.60;;;3.83;;
20857;SDS011;10589;53.636;10.012;2023-04-10T16:08:35;4.82;;;3.88;;
20857;SDS011;10589;53.636;10.012;2023-04-10T16:11:01;8.25;;;4.40;;
20857;SDS011;10589;53.636;10.012;2023-04-10T16:13:26;5.13;;;4.28;;
20857;SDS011;10589;53.636;10.012;2023-04-10T16:15:52;5.50;;;3.92;;
20857;SDS011;10589;53.636;10.012;2023-04-10T16:18:17;6.07;;;4.45;;
20857;SDS011;10589;53.636;10.012;2023-04-10T16:20:43;4.93;;;4.43;;
20857;SDS011;10589;53.636;10.012;2023-04-10T16:23:08;4.80;;;3.90;;
20857;SDS011;10589;53.636;10.012;2023-04-10T16:25:34;4.82;;;4.00;;
20857;SDS011;10589;53.636;10.012;2023-04-10T16:28:00;4.75;;;4.07;;
20857;SDS011;10589;53.636;10.012;2023-04-10T16:30:26;6.55;;;3.97;;
20857;SDS011;10589;53.636;10.012;2023-04-10T16:32:52;7.20;;;4.13;;
20857;SDS011;10589;53.636;10.012;2023-04-10T16:35:17;5.05;;;4.25;;
20857;SDS011;10589;53.636;10.012;2023-04-10T16:37:44;6.55;;;4.20;;
20857;SDS011;10589;53.636;10.012;2023-04-10T16:40:10;7.35;;;4.85;;
20857;SDS011;10589;53.636;10.012;2023-04-10T16:42:36;6.93;;;4.57;;
20857;SDS011;10589;53.636;10.012;2023-04-10T16:45:03;5.57;;;4.33;;
20857;SDS011;10589;53.636;10.012;2023-04-10T16:47:28;6.57;;;5.20;;
20857;SDS011;10589;53.636;10.012;2023-04-10T16:49:54;6.63;;;4.83;;
20857;SDS011;10589;53.636;10.012;2023-04-10T16:52:20;9.33;;;5.63;;
20857;SDS011;10589;53.636;10.012;2023-04-10T16:54:45;7.97;;;5.80;;
20857;SDS011;10589;53.636;10.012;2023-04-10T16:57:11;7.13;;;5.33;;
20857;SDS011;10589;53.636;10.012;2023-04-10T16:59:37;8.30;;;5.93;;
20857;SDS011;10589;53.636;10.012;2023-04-10T17:02:02;18.30;;;5.53;;
20857;SDS011;10589;53.636;10.012;2023-04-10T17:04:28;7.33;;;5.63;;
20857;SDS011;10589;53.636;10.012;2023-04-10T17:06:53;10.23;;;5.57;;
20857;SDS011;10589;53.636;10.012;2023-04-10T17:09:19;9.23;;;5.50;;
20857;SDS011;10589;53.636;10.012;2023-04-10T17:11:45;6.97;;;5.13;;
20857;SDS011;10589;53.636;10.012;2023-04-10T17:14:11;6.03;;;5.00;;
20857;SDS011;10589;53.636;10.012;2023-04-10T17:16:37;6.80;;;5.30;;
20857;SDS011;10589;53.636;10.012;2023-04-10T17:19:04;5.50;;;5.00;;
20857;SDS011;10589;53.636;10.012;2023-04-10T17:21:29;6.90;;;5.30;;
20857;SDS011;10589;53.636;10.012;2023-04-10T17:23:55;8.07;;;5.33;;
20857;SDS011;10589;53.636;10.012;2023-04-10T17:26:21;8.17;;;5.07;;
20857;SDS011;10589;53.636;10.012;2023-04-10T17:28:47;7.97;;;4.90;;
20857;SDS011;10589;53.636;10.012;2023-04-10T17:31:14;5.23;;;4.73;;
20857;SDS011;10589;53.636;10.012;2023-04-10T17:33:41;7.03;;;4.77;;
20857;SDS011;10589;53.636;10.012;2023-04-10T17:36:07;6.93;;;4.70;;
20857;SDS011;10589;53.636;10.012;2023-04-10T17:38:35;6.50;;;5.40;;
20857;SDS011;10589;53.636;10.012;2023-04-10T17:41:02;5.53;;;4.77;;
20857;SDS011;10589;53.636;10.012;2023-04-10T17:43:29;5.67;;;4.97;;
20857;SDS011;10589;53.636;10.012;2023-04-10T17:45:54;9.30;;;6.03;;
20857;SDS011;10589;53.636;10.012;2023-04-10T17:48:20;7.50;;;5.53;;
20857;SDS011;10589;53.636;10.012;2023-04-10T17:50:45;5.93;;;5.07;;
20857;SDS011;10589;53.636;10.012;2023-04-10T17:53:13;6.30;;;5.27;;
20857;SDS011;10589;53.636;10.012;2023-04-10T17:55:39;8.40;;;5.37;;
20857;SDS011;10589;53.636;10.012;2023-04-10T17:58:05;8.97;;;5.73;;
20857;SDS011;10589;53.636;10.012;2023-04-10T18:00:34;7.07;;;5.80;;
20857;SDS011;10589;53.636;10.012;2023-04-10T18:03:00;6.73;;;5.40;;
20857;SDS011;10589;53.636;10.012;2023-04-10T18:05:26;9.93;;;5.70;;
20857;SDS011;10589;53.636;10.012;2023-04-10T18:07:54;10.30;;;5.77;;
20857;SDS011;10589;53.636;10.012;2023-04-10T18:10:20;6.80;;;5.63;;
20857;SDS011;10589;53.636;10.012;2023-04-10T18:12:48;5.90;;;5.13;;
20857;SDS011;10589;53.636;10.012;2023-04-10T18:15:14;9.73;;;5.73;;
20857;SDS011;10589;53.636;10.012;2023-04-10T18:17:39;7.33;;;6.00;;
20857;SDS011;10589;53.636;10.012;2023-04-10T18:20:05;9.77;;;6.27;;
20857;SDS011;10589;53.636;10.012;2023-04-10T18:22:32;9.50;;;6.10;;
20857;SDS011;10589;53.636;10.012;2023-04-10T18:24:58;7.23;;;5.83;;
20857;SDS011;10589;53.636;10.012;2023-04-10T18:27:24;7.53;;;6.50;;
20857;SDS011;10589;53.636;10.012;2023-04-10T18:29:55;6.70;;;5.93;;
20857;SDS011;10589;53.636;10.012;2023-04-10T18:32:22;9.93;;;6.00;;
20857;SDS011;10589;53.636;10.012;2023-04-10T18:34:48;12.07;;;6.67;;
20857;SDS011;10589;53.636;10.012;2023-04-10T18:37:14;7.37;;;6.30;;